createdAt,value
2018-03-27T00:01:38.772Z,25.33
2018-03-27T00:04:04.985Z,17.00
2018-03-27T00:06:31.906Z,22.27
2018-03-27T00:08:59.646Z,19.83
2018-03-27T00:11:25.853Z,15.97
2018-03-27T00:13:52.083Z,14.13
2018-03-27T00:16:18.213Z,10.23
2018-03-27T00:18:44.445Z,11.03
2018-03-27T00:21:10.665Z,15.30
2018-03-27T00:23:36.949Z,10.23
2018-03-27T00:26:03.147Z,14.93
2018-03-27T00:28:41.849Z,15.70
2018-03-27T00:31:20.673Z,13.07
2018-03-27T00:33:59.141Z,14.57
2018-03-27T00:36:37.494Z,12.17
2018-03-27T00:39:15.880Z,16.70
2018-03-27T00:44:52.965Z,14.63
2018-03-27T00:47:19.149Z,15.03
2018-03-27T00:49:45.463Z,13.23
2018-03-27T00:52:11.617Z,11.70
2018-03-27T00:54:37.855Z,14.10
2018-03-27T00:57:04.757Z,16.57
2018-03-27T00:59:30.959Z,17.70
2018-03-27T01:01:57.200Z,14.00
2018-03-27T01:04:23.342Z,19.07
2018-03-27T01:06:49.565Z,13.37
2018-03-27T01:09:15.748Z,13.30
2018-03-27T01:11:42.069Z,18.43
2018-03-27T01:14:08.957Z,13.80
2018-03-27T01:16:35.478Z,11.40
2018-03-27T01:19:16.568Z,17.07
2018-03-27T01:21:42.709Z,20.10
2018-03-27T01:24:09.464Z,16.17
2018-03-27T01:26:36.151Z,16.30
2018-03-27T01:29:02.429Z,15.13
2018-03-27T01:31:29.389Z,16.93
2018-03-27T01:33:55.613Z,12.80
2018-03-27T01:36:22.515Z,16.83
2018-03-27T01:38:48.687Z,14.60
2018-03-27T01:41:14.853Z,14.07
2018-03-27T01:43:41.021Z,13.90
2018-03-27T01:46:07.922Z,18.73
2018-03-27T01:48:34.188Z,12.67
2018-03-27T01:51:01.200Z,11.90
2018-03-27T01:53:27.388Z,13.00
2018-03-27T01:55:53.529Z,13.90
2018-03-27T01:58:19.823Z,21.20
2018-03-27T02:00:46.823Z,12.73
2018-03-27T02:03:13.044Z,16.53
2018-03-27T02:05:39.190Z,15.50
2018-03-27T02:08:05.397Z,13.90
2018-03-27T02:10:31.550Z,12.93
2018-03-27T02:13:05.285Z,16.03
2018-03-27T02:15:37.553Z,14.00
2018-03-27T02:18:09.820Z,12.47
2018-03-27T02:20:42.121Z,13.70
2018-03-27T02:23:13.372Z,15.13
2018-03-27T02:25:39.539Z,16.70
2018-03-27T02:28:06.548Z,11.40
2018-03-27T02:30:32.693Z,16.77
2018-03-27T02:32:58.905Z,15.53
2018-03-27T02:35:25.143Z,13.87
2018-03-27T02:37:52.147Z,14.40
2018-03-27T02:40:18.377Z,17.90
2018-03-27T02:42:44.549Z,16.00
2018-03-27T02:45:10.789Z,15.77
2018-03-27T02:47:37.746Z,13.83
2018-03-27T02:50:04.073Z,10.77
2018-03-27T02:52:30.928Z,18.00
2018-03-27T02:54:57.111Z,13.60
2018-03-27T02:57:23.304Z,16.57
2018-03-27T02:59:49.594Z,14.67
2018-03-27T03:02:15.823Z,15.57
2018-03-27T03:04:42.002Z,14.07
2018-03-27T03:07:08.303Z,21.80
2018-03-27T03:09:34.498Z,14.17
2018-03-27T03:12:01.443Z,17.20
2018-03-27T03:14:28.448Z,20.83
2018-03-27T03:16:54.576Z,14.23
2018-03-27T03:19:20.765Z,17.60
2018-03-27T03:21:47.042Z,14.33
2018-03-27T03:24:13.283Z,16.17
2018-03-27T03:26:40.189Z,13.90
2018-03-27T03:29:06.398Z,15.83
2018-03-27T03:31:32.578Z,13.57
2018-03-27T03:33:59.495Z,13.37
2018-03-27T03:36:25.716Z,21.80
2018-03-27T03:38:51.854Z,17.53
2018-03-27T03:41:18.807Z,18.30
2018-03-27T03:43:45.715Z,16.70
2018-03-27T03:46:11.910Z,19.00
2018-03-27T03:48:38.090Z,18.87
2018-03-27T03:51:05.141Z,18.97
2018-03-27T03:53:31.329Z,18.20
2018-03-27T03:55:57.480Z,18.70
2018-03-27T03:58:23.649Z,16.37
2018-03-27T04:00:49.839Z,15.00
2018-03-27T04:06:10.568Z,17.27
2018-03-27T04:08:37.468Z,18.90
2018-03-27T04:11:03.841Z,14.67
2018-03-27T04:13:30.771Z,18.67
2018-03-27T04:15:56.920Z,21.00
2018-03-27T04:18:23.921Z,19.57
2018-03-27T04:20:50.166Z,18.77
2018-03-27T04:23:16.425Z,19.97
2018-03-27T04:25:43.310Z,20.03
2018-03-27T04:28:09.571Z,19.67
2018-03-27T04:30:35.756Z,17.83
2018-03-27T04:33:01.926Z,21.17
2018-03-27T04:35:28.875Z,20.40
2018-03-27T04:37:55.847Z,19.97
2018-03-27T04:40:22.235Z,21.17
2018-03-27T04:42:48.398Z,28.10
2018-03-27T04:45:14.706Z,20.60
2018-03-27T04:47:41.613Z,20.33
2018-03-27T04:50:07.829Z,19.47
2018-03-27T04:52:34.002Z,27.77
2018-03-27T04:55:01.017Z,27.20
2018-03-27T04:57:27.240Z,21.33
2018-03-27T04:59:53.457Z,19.23
2018-03-27T05:02:19.665Z,25.77
2018-03-27T05:04:45.936Z,21.23
2018-03-27T05:07:12.151Z,23.37
2018-03-27T05:09:38.349Z,24.00
2018-03-27T05:12:04.591Z,33.17
2018-03-27T05:14:30.929Z,17.73
2018-03-27T05:16:57.086Z,23.80
2018-03-27T05:19:24.132Z,22.50
2018-03-27T05:21:51.105Z,22.23
2018-03-27T05:24:17.234Z,21.07
2018-03-27T05:26:43.427Z,23.83
2018-03-27T05:29:10.369Z,27.77
2018-03-27T05:31:37.345Z,25.80
2018-03-27T05:34:03.555Z,21.47
2018-03-27T05:36:29.720Z,22.90
2018-03-27T05:38:55.873Z,28.43
2018-03-27T05:41:22.077Z,29.33
2018-03-27T05:43:48.328Z,25.87
2018-03-27T05:46:15.230Z,21.37
2018-03-27T05:48:41.505Z,27.20
2018-03-27T05:51:07.680Z,26.67
2018-03-27T05:53:33.837Z,26.40
2018-03-27T05:56:00.760Z,27.90
2018-03-27T05:58:27.102Z,26.43
2018-03-27T06:00:53.543Z,33.33
2018-03-27T06:03:20.645Z,25.03
2018-03-27T06:05:46.912Z,23.13
2018-03-27T06:08:13.266Z,30.80
2018-03-27T06:10:40.177Z,29.67
2018-03-27T06:13:06.407Z,35.50
2018-03-27T06:15:32.558Z,67.27
2018-03-27T06:17:59.527Z,54.50
2018-03-27T06:20:25.702Z,48.47
2018-03-27T06:22:51.838Z,51.70
2018-03-27T06:25:18.052Z,56.93
2018-03-27T06:27:44.379Z,58.27
2018-03-27T06:30:10.705Z,63.60
2018-03-27T06:32:36.972Z,59.53
2018-03-27T06:35:03.892Z,102.63
2018-03-27T06:37:30.126Z,117.63
2018-03-27T06:39:56.334Z,121.17
2018-03-27T06:42:22.544Z,101.23
2018-03-27T06:44:48.749Z,93.17
2018-03-27T06:47:15.034Z,80.17
2018-03-27T06:49:42.204Z,71.33
2018-03-27T06:52:09.263Z,59.50
2018-03-27T06:54:35.501Z,54.03
2018-03-27T06:57:01.768Z,42.07
2018-03-27T06:59:27.913Z,35.53
2018-03-27T07:01:54.862Z,41.07
2018-03-27T07:04:21.813Z,43.63
2018-03-27T07:06:48.783Z,38.83
2018-03-27T07:09:14.952Z,39.43
2018-03-27T07:11:41.148Z,32.30
2018-03-27T07:14:07.356Z,36.20
2018-03-27T07:16:34.447Z,36.63
2018-03-27T07:19:00.999Z,37.83
2018-03-27T07:21:28.111Z,30.90
2018-03-27T07:23:54.378Z,27.73
2018-03-27T07:26:20.617Z,34.83
2018-03-27T07:28:47.520Z,29.10
2018-03-27T07:31:13.654Z,32.10
2018-03-27T07:33:40.551Z,26.50
2018-03-27T07:36:06.655Z,36.57
2018-03-27T07:38:33.658Z,27.07
2018-03-27T07:40:59.872Z,28.27
2018-03-27T07:43:26.152Z,28.63
2018-03-27T07:45:53.143Z,30.73
2018-03-27T07:48:19.433Z,30.27
2018-03-27T07:50:45.636Z,26.87
2018-03-27T07:53:12.693Z,24.90
2018-03-27T07:55:39.606Z,29.33
2018-03-27T07:58:05.770Z,24.73
2018-03-27T08:00:32.684Z,26.03
2018-03-27T08:02:58.928Z,26.77
2018-03-27T08:05:25.936Z,24.07
2018-03-27T08:07:52.110Z,25.50
2018-03-27T08:10:19.045Z,23.07
2018-03-27T08:12:46.027Z,22.07
2018-03-27T08:15:12.212Z,17.00
2018-03-27T08:17:39.173Z,19.83
2018-03-27T08:20:05.443Z,19.87
2018-03-27T08:22:31.703Z,21.63
2018-03-27T08:24:58.621Z,20.23
2018-03-27T08:27:24.825Z,19.30
2018-03-27T08:29:50.974Z,22.30
2018-03-27T08:32:17.121Z,24.63
2018-03-27T08:34:44.058Z,19.50
2018-03-27T08:37:11.692Z,23.40
2018-03-27T08:39:38.158Z,20.17
2018-03-27T08:42:05.172Z,21.87
2018-03-27T08:44:31.342Z,16.30
2018-03-27T08:46:58.339Z,18.00
2018-03-27T08:49:24.510Z,17.83
2018-03-27T08:51:51.508Z,20.07
2018-03-27T08:54:17.770Z,21.00
2018-03-27T08:56:43.962Z,18.20
2018-03-27T08:59:10.146Z,23.30
2018-03-27T09:01:36.457Z,24.63
2018-03-27T09:04:03.442Z,19.83
2018-03-27T09:06:29.748Z,23.30
2018-03-27T09:08:56.049Z,26.17
2018-03-27T09:11:23.029Z,25.07
2018-03-27T09:13:49.294Z,23.57
2018-03-27T09:16:15.470Z,21.03
2018-03-27T09:18:42.374Z,23.30
2018-03-27T09:21:08.548Z,19.87
2018-03-27T09:23:34.728Z,24.33
2018-03-27T09:26:01.682Z,20.87
2018-03-27T09:28:27.824Z,39.13
2018-03-27T09:30:54.808Z,20.47
2018-03-27T09:33:20.982Z,20.20
2018-03-27T09:35:47.112Z,19.00
2018-03-27T09:38:14.155Z,21.17
2018-03-27T09:40:41.044Z,21.50
2018-03-27T09:43:07.308Z,21.20
2018-03-27T09:45:34.310Z,18.40
2018-03-27T09:48:00.482Z,18.03
2018-03-27T09:50:27.402Z,20.77
2018-03-27T09:52:53.622Z,18.30
2018-03-27T09:55:19.920Z,18.43
2018-03-27T09:57:46.126Z,18.83
2018-03-27T10:00:13.331Z,26.27
2018-03-27T10:02:39.489Z,22.77
2018-03-27T10:05:05.760Z,23.43
2018-03-27T10:07:32.824Z,21.07
2018-03-27T10:09:59.249Z,20.70
2018-03-27T10:12:26.424Z,19.50
2018-03-27T10:14:52.783Z,20.60
2018-03-27T10:17:19.701Z,17.47
2018-03-27T10:19:46.759Z,23.90
2018-03-27T10:22:12.924Z,21.47
2018-03-27T10:24:39.085Z,23.43
2018-03-27T10:27:05.448Z,15.30
2018-03-27T10:29:31.621Z,17.93
2018-03-27T10:31:57.873Z,14.27
2018-03-27T10:34:24.081Z,18.67
2018-03-27T10:36:50.311Z,14.47
2018-03-27T10:39:16.517Z,14.87
2018-03-27T10:41:42.660Z,15.77
2018-03-27T10:44:08.865Z,15.60
2018-03-27T10:46:35.543Z,17.90
2018-03-27T10:49:01.776Z,14.23
2018-03-27T10:51:29.672Z,18.37
2018-03-27T10:53:56.673Z,12.83
2018-03-27T10:56:22.901Z,14.27
2018-03-27T10:58:49.057Z,11.77
2018-03-27T11:01:16.220Z,14.40
2018-03-27T11:03:43.360Z,16.67
2018-03-27T11:06:10.473Z,12.50
2018-03-27T11:08:36.711Z,15.87
2018-03-27T11:11:03.004Z,15.57
2018-03-27T11:13:29.278Z,17.13
2018-03-27T11:15:56.307Z,14.90
2018-03-27T11:18:22.714Z,15.53
2018-03-27T11:20:49.088Z,12.90
2018-03-27T11:23:15.396Z,15.70
2018-03-27T11:25:41.652Z,16.17
2018-03-27T11:28:08.719Z,20.50
2018-03-27T11:30:35.101Z,18.40
2018-03-27T11:33:01.344Z,14.27
2018-03-27T11:35:27.568Z,16.20
2018-03-27T11:37:54.684Z,15.40
2018-03-27T11:40:21.028Z,16.57
2018-03-27T11:42:47.320Z,17.20
2018-03-27T11:45:15.179Z,16.27
2018-03-27T11:47:41.492Z,19.13
2018-03-27T11:50:08.499Z,17.80
2018-03-27T11:52:34.774Z,16.87
2018-03-27T11:55:01.047Z,16.20
2018-03-27T11:57:27.480Z,21.60
2018-03-27T11:59:53.858Z,23.47
2018-03-27T12:02:20.997Z,20.10
2018-03-27T12:04:47.907Z,18.63
2018-03-27T12:07:14.225Z,19.53
2018-03-27T12:09:40.752Z,16.77
2018-03-27T12:12:06.923Z,18.83
2018-03-27T12:14:34.085Z,14.67
2018-03-27T12:17:01.093Z,19.80
2018-03-27T12:19:27.477Z,19.80
2018-03-27T12:21:53.815Z,16.20
2018-03-27T12:24:20.184Z,17.57
2018-03-27T12:26:46.451Z,20.93
2018-03-27T12:29:13.461Z,20.80
2018-03-27T12:31:41.233Z,20.33
2018-03-27T12:34:07.682Z,19.20
2018-03-27T12:36:35.119Z,20.00
2018-03-27T12:39:03.549Z,20.80
2018-03-27T12:41:29.916Z,19.50
2018-03-27T12:43:56.296Z,16.17
2018-03-27T12:46:22.679Z,20.70
2018-03-27T12:48:49.646Z,17.30
2018-03-27T12:51:16.718Z,18.47
2018-03-27T12:53:43.099Z,16.20
2018-03-27T12:56:09.312Z,16.93
2018-03-27T12:58:35.476Z,18.37
2018-03-27T13:01:02.481Z,18.47
2018-03-27T13:03:28.771Z,14.70
2018-03-27T13:05:55.703Z,13.80
2018-03-27T13:08:22.654Z,15.67
2018-03-27T13:10:48.863Z,15.13
2018-03-27T13:13:15.165Z,16.27
2018-03-27T13:15:41.396Z,15.53
2018-03-27T13:18:07.818Z,13.77
2018-03-27T13:20:33.994Z,18.83
2018-03-27T13:23:00.989Z,16.10
2018-03-27T13:25:27.144Z,16.50
2018-03-27T13:27:53.386Z,14.27
2018-03-27T13:30:20.312Z,13.83
2018-03-27T13:32:46.570Z,15.53
2018-03-27T13:35:12.808Z,12.47
2018-03-27T13:37:39.175Z,13.07
2018-03-27T13:40:06.958Z,13.13
2018-03-27T13:42:33.830Z,13.60
2018-03-27T13:45:00.183Z,14.53
2018-03-27T13:47:26.379Z,16.83
2018-03-27T13:49:52.565Z,20.40
2018-03-27T13:52:20.370Z,12.73
2018-03-27T13:54:47.332Z,16.23
2018-03-27T13:57:13.643Z,14.43
2018-03-27T13:59:40.087Z,15.97
2018-03-27T14:02:06.266Z,12.27
2018-03-27T14:04:33.977Z,11.37
2018-03-27T14:07:00.185Z,15.63
2018-03-27T14:09:27.189Z,13.03
2018-03-27T14:11:53.721Z,11.90
2018-03-27T14:14:20.004Z,14.63
2018-03-27T14:16:46.445Z,13.37
2018-03-27T14:19:12.714Z,19.20
2018-03-27T14:21:39.037Z,14.27
2018-03-27T14:24:05.339Z,13.07
2018-03-27T14:26:31.945Z,13.10
2018-03-27T14:28:59.107Z,15.73
2018-03-27T14:31:25.270Z,15.40
2018-03-27T14:33:51.629Z,17.33
2018-03-27T14:36:17.975Z,14.50
2018-03-27T14:38:45.063Z,16.27
2018-03-27T14:41:11.293Z,16.70
2018-03-27T14:43:37.556Z,24.03
2018-03-27T14:46:04.544Z,13.73
2018-03-27T14:48:30.846Z,12.53
2018-03-27T14:50:57.778Z,15.67
2018-03-27T14:53:25.575Z,15.83
2018-03-27T14:55:51.775Z,15.60
2018-03-27T14:58:18.007Z,18.33
2018-03-27T15:00:44.221Z,16.30
2018-03-27T15:03:10.472Z,17.30
2018-03-27T15:05:37.527Z,22.73
2018-03-27T15:08:04.564Z,22.00
2018-03-27T15:10:31.678Z,27.37
2018-03-27T15:12:57.911Z,19.00
2018-03-27T15:15:24.228Z,23.67
2018-03-27T15:17:50.422Z,28.90
2018-03-27T15:20:16.624Z,16.87
2018-03-27T15:22:43.730Z,18.40
2018-03-27T15:25:09.966Z,21.73
2018-03-27T15:27:36.186Z,22.60
2018-03-27T15:30:02.395Z,16.37
2018-03-27T15:32:28.640Z,23.40
2018-03-27T15:34:54.941Z,19.50
2018-03-27T15:37:21.229Z,18.73
2018-03-27T15:39:48.188Z,20.60
2018-03-27T15:42:14.455Z,24.03
2018-03-27T15:44:40.705Z,21.87
2018-03-27T15:47:06.978Z,22.43
2018-03-27T15:49:33.151Z,19.20
2018-03-27T15:52:00.135Z,16.03
2018-03-27T15:54:26.490Z,19.00
2018-03-27T15:56:52.882Z,18.60
2018-03-27T15:59:19.345Z,23.20
2018-03-27T16:01:45.626Z,18.10
2018-03-27T16:04:11.865Z,17.97
2018-03-27T16:06:38.173Z,16.10
2018-03-27T16:09:04.432Z,22.17
2018-03-27T16:11:31.625Z,26.60
2018-03-27T16:13:58.035Z,23.63
2018-03-27T16:16:24.248Z,23.93
2018-03-27T16:18:51.243Z,18.10
2018-03-27T16:21:17.449Z,19.07
2018-03-27T16:23:43.754Z,15.30
2018-03-27T16:26:10.236Z,25.50
2018-03-27T16:28:36.445Z,17.60
2018-03-27T16:31:02.762Z,19.50
2018-03-27T16:33:29.133Z,20.10
2018-03-27T16:35:55.461Z,24.67
2018-03-27T16:38:21.673Z,21.30
2018-03-27T16:40:47.823Z,16.60
2018-03-27T16:43:14.791Z,20.13
2018-03-27T16:45:41.803Z,16.57
2018-03-27T16:48:07.976Z,23.53
2018-03-27T16:50:35.653Z,21.43
2018-03-27T16:53:02.033Z,13.83
2018-03-27T16:55:28.984Z,16.10
2018-03-27T16:57:55.292Z,16.70
2018-03-27T17:00:21.624Z,14.93
2018-03-27T17:02:47.979Z,21.63
2018-03-27T17:05:14.221Z,22.53
2018-03-27T17:07:41.609Z,17.67
2018-03-27T17:10:08.272Z,14.60
2018-03-27T17:12:34.541Z,14.00
2018-03-27T17:15:00.924Z,16.13
2018-03-27T17:17:27.224Z,15.40
2018-03-27T17:19:53.545Z,27.07
2018-03-27T17:22:19.765Z,16.33
2018-03-27T17:24:46.082Z,13.17
2018-03-27T17:27:12.343Z,18.80
2018-03-27T17:29:38.598Z,16.80
2018-03-27T17:32:04.926Z,17.03
2018-03-27T17:34:31.808Z,18.63
2018-03-27T17:36:58.727Z,19.70
2018-03-27T17:39:24.961Z,21.07
2018-03-27T17:41:51.322Z,10.80
2018-03-27T17:44:18.356Z,15.10
2018-03-27T17:46:45.330Z,15.27
2018-03-27T17:49:11.712Z,14.43
2018-03-27T17:51:38.679Z,13.27
2018-03-27T17:54:05.679Z,11.50
2018-03-27T17:56:33.212Z,17.30
2018-03-27T17:58:59.566Z,19.47
2018-03-27T18:01:25.810Z,22.57
2018-03-27T18:03:52.015Z,25.83
2018-03-27T18:06:18.267Z,30.70
2018-03-27T18:08:44.483Z,23.27
2018-03-27T18:11:10.673Z,16.60
2018-03-27T18:13:38.441Z,11.83
2018-03-27T18:16:04.735Z,13.27
2018-03-27T18:18:31.838Z,16.80
2018-03-27T18:20:58.129Z,14.50
2018-03-27T18:23:24.444Z,18.37
2018-03-27T18:25:50.785Z,22.90
2018-03-27T18:28:17.027Z,22.10
2018-03-27T18:30:44.035Z,26.77
2018-03-27T18:33:11.005Z,26.33
2018-03-27T18:35:37.380Z,22.27
2018-03-27T18:38:04.580Z,26.13
2018-03-27T18:40:30.903Z,26.63
2018-03-27T18:42:57.910Z,26.23
2018-03-27T18:45:24.163Z,24.27
2018-03-27T18:47:51.343Z,23.50
2018-03-27T18:50:17.721Z,21.80
2018-03-27T18:52:45.429Z,20.30
2018-03-27T18:55:11.586Z,19.87
2018-03-27T18:57:37.779Z,19.30
2018-03-27T19:00:04.070Z,27.70
2018-03-27T19:02:30.325Z,27.13
2018-03-27T19:04:56.584Z,23.83
2018-03-27T19:07:22.908Z,26.00
2018-03-27T19:09:49.170Z,27.73
2018-03-27T19:12:15.493Z,21.40
2018-03-27T19:14:41.827Z,18.63
2018-03-27T19:17:08.135Z,19.93
2018-03-27T19:19:34.972Z,22.97
2018-03-27T19:22:01.214Z,18.07
2018-03-27T19:24:27.510Z,17.37
2018-03-27T19:26:53.779Z,17.83
2018-03-27T19:29:20.114Z,17.47
2018-03-27T19:31:47.155Z,15.93
2018-03-27T19:34:13.701Z,18.73
2018-03-27T19:36:39.914Z,17.03
2018-03-27T19:39:06.221Z,20.40
2018-03-27T19:41:32.568Z,19.63
2018-03-27T19:43:59.251Z,14.83
2018-03-27T19:46:26.250Z,15.20
2018-03-27T19:48:52.520Z,15.77
2018-03-27T19:51:19.581Z,15.67
2018-03-27T19:53:45.796Z,22.70
2018-03-27T19:56:12.782Z,14.97
2018-03-27T19:58:39.102Z,17.00
2018-03-27T20:01:05.323Z,14.70
2018-03-27T20:03:31.582Z,14.77
2018-03-27T20:05:57.821Z,16.30
2018-03-27T20:08:25.602Z,14.30
2018-03-27T20:10:52.663Z,22.97
2018-03-27T20:13:19.423Z,19.90
2018-03-27T20:15:45.804Z,17.33
2018-03-27T20:18:13.511Z,18.87
2018-03-27T20:20:39.772Z,22.47
2018-03-27T20:23:05.956Z,19.30
2018-03-27T20:25:32.270Z,15.17
2018-03-27T20:27:59.220Z,13.30
2018-03-27T20:30:26.238Z,17.90
2018-03-27T20:32:52.680Z,17.43
2018-03-27T20:35:18.866Z,16.00
2018-03-27T20:37:45.140Z,17.87
2018-03-27T20:40:12.173Z,20.57
2018-03-27T20:42:39.234Z,20.63
2018-03-27T20:45:06.171Z,18.77
2018-03-27T20:47:32.432Z,19.60
2018-03-27T20:49:58.746Z,14.87
2018-03-27T20:52:25.070Z,19.83
2018-03-27T20:54:52.048Z,18.20
2018-03-27T20:57:18.293Z,19.70
2018-03-27T20:59:44.571Z,19.43
2018-03-27T21:02:11.576Z,18.40
2018-03-27T21:04:37.843Z,24.33
2018-03-27T21:07:04.776Z,20.10
2018-03-27T21:09:31.761Z,20.73
2018-03-27T21:11:57.960Z,22.10
2018-03-27T21:14:25.504Z,19.70
2018-03-27T21:16:53.079Z,22.03
2018-03-27T21:19:20.695Z,20.27
2018-03-27T21:21:46.925Z,22.97
2018-03-27T21:24:13.207Z,21.10
2018-03-27T21:26:39.388Z,21.43
2018-03-27T21:29:07.150Z,17.40
2018-03-27T21:31:35.237Z,28.60
2018-03-27T21:34:02.253Z,24.60
2018-03-27T21:36:28.525Z,21.57
2018-03-27T21:38:55.773Z,24.23
2018-03-27T21:41:22.295Z,24.70
2018-03-27T21:43:48.485Z,26.53
2018-03-27T21:46:14.736Z,24.80
2018-03-27T21:48:40.997Z,25.17
2018-03-27T21:51:08.043Z,32.00
2018-03-27T21:53:34.259Z,32.20
2018-03-27T21:56:01.213Z,26.23
2018-03-27T21:58:27.517Z,28.23
2018-03-27T22:00:53.675Z,29.00
2018-03-27T22:03:19.901Z,29.30
2018-03-27T22:05:46.390Z,25.10
2018-03-27T22:08:12.674Z,31.00
2018-03-27T22:10:38.906Z,28.33
2018-03-27T22:13:05.171Z,31.80
2018-03-27T22:15:32.080Z,30.97
2018-03-27T22:17:58.457Z,27.50
2018-03-27T22:20:24.723Z,29.87
2018-03-27T22:22:51.029Z,24.67
2018-03-27T22:25:18.128Z,33.57
2018-03-27T22:27:44.452Z,31.50
2018-03-27T22:30:10.696Z,27.53
2018-03-27T22:32:36.920Z,26.80
2018-03-27T22:35:03.251Z,28.47
2018-03-27T22:37:29.584Z,30.20
2018-03-27T22:39:55.904Z,30.57
2018-03-27T22:42:22.346Z,35.03
2018-03-27T22:44:48.560Z,31.97
2018-03-27T22:47:14.760Z,31.53
2018-03-27T22:49:41.065Z,27.50
2018-03-27T22:52:07.337Z,33.43
2018-03-27T22:54:33.512Z,32.60
2018-03-27T22:57:00.473Z,35.40
2018-03-27T22:59:26.754Z,37.93
2018-03-27T23:01:52.928Z,30.27
2018-03-27T23:04:19.406Z,34.90
2018-03-27T23:06:45.594Z,34.27
2018-03-27T23:09:11.854Z,33.63
2018-03-27T23:11:38.168Z,36.27
2018-03-27T23:14:04.400Z,30.60
2018-03-27T23:16:30.650Z,34.03
2018-03-27T23:18:56.966Z,36.70
2018-03-27T23:21:23.187Z,34.37
2018-03-27T23:23:49.456Z,33.97
2018-03-27T23:26:16.369Z,32.60
2018-03-27T23:28:42.583Z,35.80
2018-03-27T23:31:08.809Z,34.20
2018-03-27T23:33:35.102Z,33.03
2018-03-27T23:36:01.359Z,30.27
2018-03-27T23:38:27.643Z,37.27
2018-03-27T23:40:54.592Z,33.27
2018-03-27T23:43:20.796Z,29.17
2018-03-27T23:45:47.824Z,32.10
2018-03-27T23:48:14.096Z,32.50
2018-03-27T23:50:41.206Z,35.60
2018-03-27T23:53:07.526Z,32.47
2018-03-27T23:55:33.745Z,28.93
2018-03-27T23:57:59.911Z,32.20
